This is the latest recevied weather packets stored in our database for station/object W2SBL-1. If no packets are shown the sender has not sent any weather packets the latest 10 day(s).
| Time | Temp. | Humidity | Pressure | Rain* | Wind** | Luminosity | Snow |
|---|---|---|---|---|---|---|---|
| 1788072178 | 20° C | 55% | 1021.9 hPa | - | - | - | - |
| 1788071278 | 20° C | 55% | 1021.9 hPa | - | - | - | - |
| 1788070378 | 20° C | 55% | 1021.9 hPa | - | - | - | - |
| 1788069478 | 20.56° C | 55% | 1021.7 hPa | - | - | - | - |
| 1788068578 | 20.56° C | 55% | 1021.9 hPa | - | - | - | - |
| 1788067677 | 20.56° C | 55% | 1021.9 hPa | - | - | - | - |
| 1788066777 | 20.56° C | 54% | 1021.8 hPa | - | - | - | - |
| 1788065877 | 20.56° C | 55% | 1021.8 hPa | - | - | - | - |
| 1788064977 | 20.56° C | 55% | 1021.8 hPa | - | - | - | - |
| 1788064077 | 20.56° C | 55% | 1021.9 hPa | - | - | - | - |
| 1788063177 | 20.56° C | 55% | 1021.9 hPa | - | - | - | - |
| 1788062277 | 20.56° C | 55% | 1021.7 hPa | - | - | - | - |
| 1788061377 | 3.89° C | 55% | 994.5 hPa | - | - | - | - |
| 1788060477 | 20.56° C | 56% | 1021.8 hPa | - | - | - | - |
| 1788059577 | 20° C | 56% | 1021.7 hPa | - | - | - | - |
| 1788058677 | 20.56° C | 56% | 1021.7 hPa | - | - | - | - |
| 1788057777 | 20.56° C | 57% | 1021.8 hPa | - | - | - | - |
| 1788056876 | 20.56° C | 57% | 1021.8 hPa | - | - | - | - |
| 1788055976 | 20.56° C | 57% | 1022 hPa | - | - | - | - |
| 1788055080 | 21.11° C | 57% | 1021.8 hPa | - | - | - | - |
| 1788054176 | 21.11° C | 57% | 1021.7 hPa | - | - | - | - |
| 1788053276 | 21.67° C | 57% | 1021.5 hPa | - | - | - | - |
| 1788052376 | 22.22° C | 57% | 1021.4 hPa | - | - | - | - |
| 1788051476 | 19.44° C | 57% | 1020.1 hPa | - | - | - | - |
| 1788050576 | 22.78° C | 56% | 1021.5 hPa | - | - | - | - |
* Rain since midnight (hover to see other rain measurements)
** Current wind speed in m/s (hover to see current wind gust speed)